Time;durP1;ratioP1;P1;durP2;ratioP2;P2;SDS_P1;SDS_P2;PMS_P1;PMS_P2;Temp;Humidity;BMP_temperature;BMP_pressure;BME280_temperature;BME280_humidity;BME280_pressure;Samples;Min_cycle;Max_cycle;Signal;HPM_P1;HPM_P2
2023/12/17 00:00:59;;;;;;;5.85;1.60;;;;;;;18.52;71.71;103746.44;4979935;28;20030;-37
2023/12/17 00:03:26;;;;;;;6.88;1.75;;;;;;;18.51;71.57;103750.22;4980343;28;20093;-39
2023/12/17 00:05:52;;;;;;;3.80;1.38;;;;;;;18.49;71.67;103746.00;4977500;28;20499;-38
2023/12/17 00:08:19;;;;;;;4.63;1.73;;;;;;;18.47;71.64;103745.38;4964025;28;20117;-38
2023/12/17 00:10:51;;;;;;;6.65;1.90;;;;;;;18.46;72.07;103749.19;4977277;28;20038;-38
2023/12/17 00:13:17;;;;;;;3.15;1.63;;;;;;;18.45;72.23;103745.59;4980605;28;20077;-36
2023/12/17 00:15:43;;;;;;;3.95;1.75;;;;;;;18.43;72.33;103737.56;4977777;28;20030;-37
2023/12/17 00:18:09;;;;;;;4.65;1.50;;;;;;;18.43;72.26;103734.81;4979191;28;20058;-37
2023/12/17 00:20:34;;;;;;;3.65;1.52;;;;;;;18.41;72.68;103728.69;4983311;28;20655;-37
2023/12/17 00:22:59;;;;;;;2.85;1.30;;;;;;;18.41;72.83;103725.09;4998182;28;20120;-36
2023/12/17 00:25:25;;;;;;;4.43;1.40;;;;;;;18.40;72.95;103728.91;4996486;28;20103;-37
2023/12/17 00:27:50;;;;;;;4.25;1.50;;;;;;;18.40;72.91;103737.97;4995639;28;20036;-38
2023/12/17 00:30:16;;;;;;;6.10;1.90;;;;;;;18.40;73.02;103748.13;4998624;28;20486;-37
2023/12/17 00:32:41;;;;;;;3.95;1.55;;;;;;;18.40;72.92;103742.63;4995311;28;20034;-37
2023/12/17 00:35:07;;;;;;;5.10;1.60;;;;;;;18.40;72.96;103734.38;4995370;28;20038;-37
2023/12/17 00:37:32;;;;;;;2.63;1.48;;;;;;;18.40;73.16;103732.47;4996687;28;20092;-37
2023/12/17 00:39:58;;;;;;;4.57;1.60;;;;;;;18.41;73.17;103725.94;4997661;28;20351;-36
2023/12/17 00:42:23;;;;;;;3.13;1.35;;;;;;;18.41;72.85;103725.94;4994489;28;20392;-36
2023/12/17 00:44:49;;;;;;;2.85;1.50;;;;;;;18.42;73.30;103721.31;4976831;28;20065;-38
2023/12/17 00:47:14;;;;;;;1.75;1.38;;;;;;;18.42;72.97;103729.53;4997738;28;20068;-37
2023/12/17 00:49:39;;;;;;;5.25;1.65;;;;;;;18.41;72.99;103723.19;4996289;28;20096;-36
2023/12/17 00:52:05;;;;;;;2.40;1.40;;;;;;;18.41;73.19;103725.09;5001510;28;20121;-37
2023/12/17 00:54:30;;;;;;;2.80;1.50;;;;;;;18.40;73.26;103709.69;4995860;28;20522;-38
2023/12/17 00:56:56;;;;;;;3.47;1.40;;;;;;;18.40;73.03;103699.53;4996123;28;20056;-37
2023/12/17 00:59:21;;;;;;;3.55;1.50;;;;;;;18.40;73.46;103706.94;4970986;28;20113;-37
2023/12/17 01:01:47;;;;;;;2.78;1.50;;;;;;;18.39;73.37;103703.34;4992807;28;20141;-36
2023/12/17 01:04:12;;;;;;;5.28;1.42;;;;;;;18.40;73.26;103710.50;4995306;28;20026;-37
2023/12/17 01:06:37;;;;;;;3.33;1.30;;;;;;;18.40;73.10;103716.00;4994530;28;20034;-38
2023/12/17 01:09:03;;;;;;;2.00;1.45;;;;;;;18.40;73.45;103710.50;4997543;28;20069;-37
2023/12/17 01:11:28;;;;;;;3.17;1.40;;;;;;;18.40;73.31;103718.75;4995158;28;20036;-37
2023/12/17 01:13:53;;;;;;;3.70;1.40;;;;;;;18.40;73.35;103709.69;4993899;28;20046;-38
2023/12/17 01:16:19;;;;;;;2.70;1.50;;;;;;;18.40;73.30;103712.41;4993425;28;20140;-36
2023/12/17 01:18:44;;;;;;;3.83;1.40;;;;;;;18.39;73.55;103707.97;4992596;28;20026;-38
2023/12/17 01:21:10;;;;;;;3.65;1.20;;;;;;;18.38;73.47;103711.78;4998747;28;20100;-37
2023/12/17 01:23:36;;;;;;;3.65;1.42;;;;;;;18.39;73.43;103702.50;5008585;28;20034;-38
2023/12/17 01:26:02;;;;;;;3.40;1.73;;;;;;;18.38;73.38;103693.41;5014697;28;20025;-38
2023/12/17 01:28:27;;;;;;;3.75;1.50;;;;;;;18.39;73.66;103697.00;5002055;28;20577;-38
2023/12/17 01:30:53;;;;;;;2.42;1.40;;;;;;;18.39;73.78;103699.75;5000205;28;20446;-38
2023/12/17 01:33:18;;;;;;;3.97;1.50;;;;;;;18.39;73.54;103694.25;5002960;28;20215;-37
2023/12/17 01:35:43;;;;;;;4.50;1.50;;;;;;;18.38;73.59;103692.56;5009979;28;20084;-38
2023/12/17 01:38:09;;;;;;;2.10;1.30;;;;;;;18.36;73.49;103673.56;4987272;28;20037;-38
2023/12/17 01:40:34;;;;;;;3.28;1.40;;;;;;;18.36;73.42;103686.44;5009579;28;20029;-37
2023/12/17 01:43:03;;;;;;;2.72;1.30;;;;;;;18.35;73.53;103679.25;5009859;28;20036;-39
2023/12/17 01:45:28;;;;;;;2.00;1.20;;;;;;;18.35;73.63;103679.25;5009447;28;20029;-38
2023/12/17 01:47:53;;;;;;;3.20;1.20;;;;;;;18.33;73.67;103676.75;5013751;28;20508;-38
2023/12/17 01:50:19;;;;;;;3.85;1.40;;;;;;;18.33;73.64;103674.00;5006713;28;20040;-38
2023/12/17 01:52:45;;;;;;;2.88;1.33;;;;;;;18.33;73.67;103682.22;5012677;28;20105;-38
2023/12/17 01:55:10;;;;;;;3.40;1.40;;;;;;;18.32;73.64;103677.78;4985824;28;20052;-37
2023/12/17 01:57:35;;;;;;;4.03;1.30;;;;;;;18.32;73.65;103685.16;5012614;28;20037;-37
2023/12/17 02:00:03;;;;;;;3.60;1.50;;;;;;;18.32;73.77;103688.78;4993220;28;20033;-38
2023/12/17 02:02:29;;;;;;;2.80;1.27;;;;;;;18.32;73.79;103686.03;5009845;28;20029;-37
2023/12/17 02:04:55;;;;;;;3.83;1.60;;;;;;;18.30;73.68;103676.31;4990864;28;20452;-36
2023/12/17 02:07:20;;;;;;;4.55;1.45;;;;;;;18.31;73.77;103680.72;5008694;28;20111;-37
2023/12/17 02:09:46;;;;;;;4.28;1.50;;;;;;;18.30;73.88;103687.28;5008015;28;20079;-38
2023/12/17 02:12:27;;;;;;;4.95;1.60;;;;;;;18.29;74.04;103702.91;5010277;28;20048;-37
2023/12/17 02:14:53;;;;;;;3.95;1.65;;;;;;;18.27;73.89;103703.13;5014615;28;20116;-37
2023/12/17 02:17:27;;;;;;;2.17;1.25;;;;;;;18.27;74.01;103710.50;5009834;28;20097;-38
2023/12/17 02:19:53;;;;;;;4.18;1.50;;;;;;;18.27;74.20;103707.75;5012391;28;20234;-37
2023/12/17 02:22:18;;;;;;;2.97;1.30;;;;;;;18.26;74.17;103711.56;5000178;28;20566;-37
2023/12/17 02:24:43;;;;;;;4.57;1.85;;;;;;;18.27;74.17;103713.25;4999398;28;20044;-37
2023/12/17 02:27:09;;;;;;;2.92;1.30;;;;;;;18.27;74.29;103721.47;4980028;28;20137;-37
2023/12/17 02:29:34;;;;;;;6.05;1.30;;;;;;;18.25;74.12;103715.38;5002384;28;20112;-39
2023/12/17 02:31:59;;;;;;;1.90;1.35;;;;;;;18.25;74.14;103718.13;5000262;28;20026;-37
2023/12/17 02:34:25;;;;;;;3.47;1.30;;;;;;;18.25;74.18;103715.38;5002940;28;20022;-37
2023/12/17 02:36:50;;;;;;;3.58;1.42;;;;;;;18.24;73.94;103724.66;5001483;28;20387;-37
2023/12/17 02:39:16;;;;;;;3.35;1.30;;;;;;;18.24;74.34;103716.41;5002061;28;20044;-37
2023/12/17 02:41:41;;;;;;;4.25;1.60;;;;;;;18.25;74.15;103709.88;5001559;28;20494;-37
2023/12/17 02:44:06;;;;;;;5.95;1.33;;;;;;;18.23;74.17;103712.84;4983650;28;20025;-38
2023/12/17 02:46:32;;;;;;;3.00;1.42;;;;;;;18.23;74.11;103707.34;4981045;28;20037;-38
2023/12/17 02:48:57;;;;;;;3.20;1.30;;;;;;;18.23;73.85;103706.50;5003910;28;20030;-38
2023/12/17 02:51:22;;;;;;;2.58;1.30;;;;;;;18.22;73.86;103699.31;5002160;28;20060;-37
2023/12/17 02:53:48;;;;;;;2.85;1.13;;;;;;;18.22;73.97;103693.81;4999849;28;20022;-37
2023/12/17 02:56:13;;;;;;;2.45;1.45;;;;;;;18.21;73.87;103700.34;5000185;28;20372;-38
2023/12/17 02:58:39;;;;;;;3.78;1.30;;;;;;;18.19;73.97;103695.06;4999571;28;20034;-38
2023/12/17 03:01:05;;;;;;;3.80;1.20;;;;;;;18.19;73.84;103700.56;4997654;28;20077;-38
2023/12/17 03:03:30;;;;;;;3.28;1.20;;;;;;;18.19;73.79;103692.34;5001761;28;20038;-37
2023/12/17 03:05:55;;;;;;;3.00;1.48;;;;;;;18.18;73.73;103698.88;5000878;28;20445;-37
2023/12/17 03:08:21;;;;;;;4.85;1.77;;;;;;;18.19;73.83;103691.50;4980280;28;20033;-37
2023/12/17 03:10:46;;;;;;;4.82;1.60;;;;;;;18.18;73.89;103692.56;4998868;28;20589;-37
2023/12/17 03:13:11;;;;;;;4.40;1.23;;;;;;;18.17;73.70;103683.44;5002459;28;20038;-38
2023/12/17 03:15:37;;;;;;;6.05;1.50;;;;;;;18.17;73.89;103680.72;4996759;28;20026;-37
2023/12/17 03:18:03;;;;;;;3.92;1.50;;;;;;;18.18;73.69;103698.03;4998044;28;20064;-37
2023/12/17 03:20:28;;;;;;;3.83;1.40;;;;;;;18.18;73.89;103689.81;4999961;28;20409;-38
2023/12/17 03:22:54;;;;;;;5.90;1.50;;;;;;;18.17;73.72;103680.72;4991083;28;20042;-38
2023/12/17 03:25:19;;;;;;;3.35;1.45;;;;;;;18.17;73.75;103664.25;4997728;28;20033;-39
2023/12/17 03:27:45;;;;;;;5.25;1.65;;;;;;;18.17;73.96;103668.91;4993954;28;20127;-38
2023/12/17 03:30:10;;;;;;;3.30;1.40;;;;;;;18.17;73.62;103658.75;4997904;28;20030;-38
2023/12/17 03:32:36;;;;;;;4.20;1.42;;;;;;;18.17;73.85;103666.16;4989017;28;20104;-38
2023/12/17 03:35:01;;;;;;;3.78;1.48;;;;;;;18.16;73.75;103665.31;4995051;28;20029;-38
2023/12/17 03:37:27;;;;;;;2.70;1.48;;;;;;;18.17;73.68;103668.91;4993673;28;20500;-38
2023/12/17 03:39:52;;;;;;;6.97;1.67;;;;;;;18.17;73.66;103680.72;4990159;28;20525;-37
2023/12/17 03:42:18;;;;;;;3.22;1.45;;;;;;;18.18;73.53;103662.34;4994116;28;20486;-37
2023/12/17 03:44:44;;;;;;;5.53;1.70;;;;;;;18.16;73.73;103661.72;4990956;28;20455;-36
2023/12/17 03:47:10;;;;;;;4.70;1.58;;;;;;;18.16;73.76;103664.44;4964664;28;20437;-38
2023/12/17 03:49:35;;;;;;;5.07;1.70;;;;;;;18.15;73.83;103669.09;4994293;28;20030;-37
2023/12/17 03:52:03;;;;;;;3.72;1.50;;;;;;;18.15;73.87;103662.75;4995858;28;20034;-37
2023/12/17 03:54:28;;;;;;;7.50;1.65;;;;;;;18.13;73.73;103654.75;4996393;28;20053;-37
2023/12/17 03:56:54;;;;;;;5.70;1.67;;;;;;;18.13;73.95;103660.22;4992957;28;20038;-38
2023/12/17 03:59:19;;;;;;;5.80;1.90;;;;;;;18.11;73.79;103643.97;4977875;28;20022;-37
2023/12/17 04:01:46;;;;;;;4.93;1.55;;;;;;;18.12;73.89;103645.69;4991923;28;20042;-37
2023/12/17 04:04:11;;;;;;;3.88;1.65;;;;;;;18.12;73.94;103647.56;4997519;28;20026;-37
2023/12/17 04:06:40;;;;;;;6.07;2.08;;;;;;;18.12;73.69;103640.19;4997148;28;20040;-38
2023/12/17 04:09:06;;;;;;;6.10;1.60;;;;;;;18.10;73.70;103634.06;4999627;28;20040;-37
2023/12/17 04:11:31;;;;;;;7.10;1.67;;;;;;;18.11;73.71;103634.88;4996046;28;20033;-37
2023/12/17 04:13:56;;;;;;;5.68;1.73;;;;;;;18.09;73.98;103631.53;4975562;28;20019;-38
2023/12/17 04:16:22;;;;;;;5.30;1.90;;;;;;;18.09;73.71;103634.28;4997700;28;20053;-37
2023/12/17 04:18:47;;;;;;;6.82;2.10;;;;;;;18.09;73.95;103634.28;4998655;28;20090;-37
2023/12/17 04:21:12;;;;;;;18.98;2.28;;;;;;;18.08;74.08;103627.09;5006529;28;20413;-37
2023/12/17 04:23:38;;;;;;;5.43;1.65;;;;;;;18.06;74.04;103631.94;5010240;28;20030;-38
2023/12/17 04:26:04;;;;;;;4.32;1.63;;;;;;;18.06;74.09;103640.16;5006369;28;20029;-37
2023/12/17 04:28:29;;;;;;;6.28;2.15;;;;;;;18.05;74.14;103630.22;5006291;28;20025;-39
2023/12/17 04:30:54;;;;;;;3.63;1.60;;;;;;;18.05;74.22;103638.47;5004142;28;20165;-39
2023/12/17 04:33:20;;;;;;;6.22;2.03;;;;;;;18.04;73.92;103631.31;5004351;28;20030;-36
2023/12/17 04:35:45;;;;;;;5.68;1.80;;;;;;;18.03;74.20;103632.38;5006353;28;20025;-37
2023/12/17 04:38:10;;;;;;;5.85;1.65;;;;;;;18.03;73.92;103635.09;5003956;28;20536;-36
2023/12/17 04:40:36;;;;;;;7.68;1.80;;;;;;;18.04;74.14;103629.41;5006670;28;20025;-36
2023/12/17 04:43:01;;;;;;;8.82;2.25;;;;;;;18.04;74.07;103632.16;4986241;28;20090;-38
2023/12/17 04:45:26;;;;;;;4.88;1.70;;;;;;;18.03;74.11;103624.13;5007799;28;20033;-38
2023/12/17 04:47:52;;;;;;;11.18;2.30;;;;;;;18.02;74.12;103620.53;5009527;28;20053;-38
2023/12/17 04:50:17;;;;;;;7.65;2.40;;;;;;;18.01;74.28;103629.81;5003976;28;20030;-38
2023/12/17 04:52:43;;;;;;;7.43;2.38;;;;;;;17.99;74.36;103629.19;5004835;28;20030;-37
2023/12/17 04:55:08;;;;;;;10.32;2.65;;;;;;;18.00;74.42;103624.53;4987510;28;20110;-38
2023/12/17 04:57:34;;;;;;;5.78;2.10;;;;;;;18.00;74.13;103621.78;5000661;28;20029;-38
2023/12/17 05:00:01;;;;;;;6.13;2.00;;;;;;;17.99;74.18;103623.72;4993718;28;20412;-38
2023/12/17 05:02:26;;;;;;;7.55;2.38;;;;;;;18.01;74.16;103610.59;5005137;28;20124;-37
2023/12/17 05:04:52;;;;;;;7.47;2.17;;;;;;;18.00;74.41;103611.69;5010865;28;21786;-37
2023/12/17 05:07:17;;;;;;;6.88;1.98;;;;;;;17.99;74.28;103615.47;5008622;28;20017;-37
2023/12/17 05:09:43;;;;;;;11.68;2.03;;;;;;;17.99;74.31;103606.38;5014486;28;20034;-37
2023/12/17 05:12:08;;;;;;;5.93;1.85;;;;;;;17.98;74.36;103608.28;5012597;28;20081;-38
2023/12/17 05:14:33;;;;;;;10.60;2.30;;;;;;;17.98;74.43;103601.94;5009173;28;20409;-37
2023/12/17 05:16:59;;;;;;;9.30;2.30;;;;;;;17.98;74.24;103607.44;4990404;28;20041;-38
2023/12/17 05:19:24;;;;;;;9.15;2.38;;;;;;;17.96;74.32;103607.66;5003571;28;20025;-37
2023/12/17 05:21:49;;;;;;;8.65;2.40;;;;;;;17.95;74.50;103604.06;4986880;28;20301;-38
2023/12/17 05:24:15;;;;;;;6.80;2.15;;;;;;;17.95;74.48;103601.31;4985982;28;20030;-37
2023/12/17 05:26:40;;;;;;;8.10;2.10;;;;;;;17.93;74.55;103614.38;5009197;28;20274;-37
2023/12/17 05:29:05;;;;;;;10.73;2.90;;;;;;;17.94;74.39;103612.50;5011945;28;20661;-37
2023/12/17 05:31:31;;;;;;;9.80;2.35;;;;;;;17.92;74.50;103612.69;5013509;28;20361;-37
2023/12/17 05:33:56;;;;;;;7.85;2.17;;;;;;;17.92;74.47;103606.34;5005888;28;20017;-37
2023/12/17 05:36:21;;;;;;;6.60;2.30;;;;;;;17.92;74.68;103598.97;4987759;28;20034;-37
2023/12/17 05:38:47;;;;;;;5.50;2.25;;;;;;;17.96;74.65;103604.91;5006550;28;20505;-37
2023/12/17 05:41:12;;;;;;;8.07;2.10;;;;;;;17.99;74.80;103598.16;5007784;28;20466;-37
2023/12/17 05:43:38;;;;;;;6.38;2.00;;;;;;;18.05;74.32;103611.88;5004168;28;20033;-37
2023/12/17 05:46:03;;;;;;;10.02;2.65;;;;;;;18.10;74.28;103612.09;5007786;28;20393;-38
2023/12/17 05:48:29;;;;;;;6.75;1.95;;;;;;;18.17;74.13;103611.25;5001250;28;20032;-37
2023/12/17 05:50:54;;;;;;;6.28;1.95;;;;;;;18.22;74.06;103603.22;5009081;28;20265;-38
2023/12/17 05:53:19;;;;;;;11.98;2.25;;;;;;;18.30;74.01;103616.75;5010680;28;20613;-38
2023/12/17 05:55:45;;;;;;;8.18;2.20;;;;;;;18.36;74.40;103607.66;5001956;28;20045;-38
2023/12/17 05:58:10;;;;;;;8.25;2.67;;;;;;;18.45;74.08;103616.50;5001300;28;20029;-38
2023/12/17 06:00:35;;;;;;;8.75;2.83;;;;;;;18.54;74.03;103620.75;5004406;28;20129;-37
2023/12/17 06:03:01;;;;;;;6.80;2.17;;;;;;;18.62;73.73;103627.91;5005012;28;20466;-37
2023/12/17 06:05:26;;;;;;;7.47;2.30;;;;;;;18.72;73.88;103628.31;5009705;28;20029;-38
2023/12/17 06:07:51;;;;;;;11.27;2.90;;;;;;;18.84;73.67;103627.66;5006276;28;20648;-37
2023/12/17 06:10:17;;;;;;;8.50;2.83;;;;;;;18.89;73.32;103625.94;5017114;28;20037;-37
2023/12/17 06:12:42;;;;;;;11.05;2.60;;;;;;;19.02;73.23;103621.50;5000700;28;20117;-37
2023/12/17 06:15:09;;;;;;;9.68;2.65;;;;;;;19.12;72.75;103630.13;5003774;28;20057;-37
2023/12/17 06:17:34;;;;;;;7.72;2.95;;;;;;;19.20;72.47;103621.66;5002382;28;20056;-37
2023/12/17 06:20:02;;;;;;;9.38;3.00;;;;;;;19.26;72.43;103617.16;5001458;28;20510;-38
2023/12/17 06:22:28;;;;;;;7.80;2.50;;;;;;;19.26;71.91;103614.41;5006565;28;20112;-37
2023/12/17 06:24:53;;;;;;;7.45;2.45;;;;;;;19.27;72.30;103618.03;4992176;28;20478;-36
2023/12/17 06:27:19;;;;;;;6.32;2.30;;;;;;;19.25;72.19;103612.72;4994964;28;20040;-37
2023/12/17 06:29:46;;;;;;;9.27;3.00;;;;;;;19.24;71.78;103611.06;5016803;28;20520;-36
2023/12/17 06:32:11;;;;;;;7.07;2.92;;;;;;;19.23;72.21;103609.38;5010925;28;20040;-37
2023/12/17 06:34:37;;;;;;;7.10;2.70;;;;;;;19.19;72.05;103602.59;5001051;28;20025;-38
2023/12/17 06:37:03;;;;;;;6.82;2.30;;;;;;;19.19;72.09;103610.84;5003275;28;20021;-37
2023/12/17 06:39:28;;;;;;;5.95;2.63;;;;;;;19.18;71.82;103606.44;4992516;28;20120;-37
2023/12/17 06:41:54;;;;;;;8.07;2.65;;;;;;;19.18;71.62;103609.19;5002994;28;20029;-37
2023/12/17 06:44:19;;;;;;;7.50;2.55;;;;;;;19.18;71.98;103606.44;5005004;28;20119;-38
2023/12/17 06:46:44;;;;;;;6.88;3.03;;;;;;;19.18;71.95;103611.94;5006005;28;20033;-37
2023/12/17 06:49:10;;;;;;;7.38;2.75;;;;;;;19.16;71.84;103617.63;5008884;28;20509;-37
2023/12/17 06:51:39;;;;;;;11.63;3.42;;;;;;;19.16;71.83;103625.03;5000300;28;20036;-37
2023/12/17 06:54:08;;;;;;;8.50;3.50;;;;;;;19.14;71.54;103624.41;5002222;28;20553;-37
2023/12/17 06:56:33;;;;;;;7.47;2.92;;;;;;;19.13;71.39;103618.09;5010740;28;20033;-37
2023/12/17 06:58:59;;;;;;;11.32;3.88;;;;;;;19.10;71.65;103624.00;4982021;28;20033;-37
2023/12/17 07:01:24;;;;;;;7.18;3.30;;;;;;;19.08;71.55;103620.66;5002992;28;20234;-37
2023/12/17 07:03:50;;;;;;;8.68;4.47;;;;;;;19.06;71.58;103618.09;5010866;28;20132;-38
2023/12/17 07:06:15;;;;;;;8.30;3.78;;;;;;;19.05;71.54;103612.81;4999584;28;20232;-37
2023/12/17 07:08:43;;;;;;;9.27;3.78;;;;;;;19.02;71.72;103619.59;5000688;28;20033;-37
2023/12/17 07:11:10;;;;;;;7.38;3.55;;;;;;;19.03;71.85;103612.19;5012661;28;20116;-38
2023/12/17 07:13:36;;;;;;;7.80;3.72;;;;;;;19.03;71.77;103617.69;5015415;28;20804;-37
2023/12/17 07:16:01;;;;;;;8.85;3.67;;;;;;;19.03;71.61;103606.69;5000642;28;20402;-37
2023/12/17 07:18:26;;;;;;;8.02;4.07;;;;;;;19.06;71.80;103611.75;4966615;28;20025;-37
2023/12/17 07:20:52;;;;;;;9.88;4.25;;;;;;;19.06;71.51;103614.50;4998523;28;20081;-38
2023/12/17 07:23:17;;;;;;;8.98;4.32;;;;;;;19.07;71.42;103610.72;4983459;28;20021;-43
2023/12/17 07:25:42;;;;;;;8.75;4.15;;;;;;;19.06;71.41;103611.75;5005518;28;20108;-38
2023/12/17 07:28:09;;;;;;;8.02;4.15;;;;;;;19.03;71.58;103610.28;5003708;28;20514;-37
2023/12/17 07:30:35;;;;;;;5.57;3.65;;;;;;;19.00;71.42;103609.88;4977980;28;20056;-37
2023/12/17 07:33:00;;;;;;;8.00;3.92;;;;;;;19.00;71.78;103612.63;5010919;28;20034;-38
2023/12/17 07:35:26;;;;;;;6.25;3.60;;;;;;;18.98;71.70;103603.75;4997656;28;20029;-37
2023/12/17 07:37:51;;;;;;;8.00;4.10;;;;;;;18.97;71.62;103610.31;4998858;28;20048;-37
2023/12/17 07:40:16;;;;;;;4.88;3.15;;;;;;;18.97;71.76;103619.41;5000407;28;20133;-37
2023/12/17 07:42:42;;;;;;;7.53;4.03;;;;;;;18.96;71.79;103620.47;5002070;28;20146;-37
2023/12/17 07:45:08;;;;;;;6.63;4.10;;;;;;;18.98;71.96;103620.25;5001791;28;20395;-37
2023/12/17 07:47:33;;;;;;;8.32;3.85;;;;;;;18.97;71.75;103618.53;5001341;28;20137;-38
2023/12/17 07:49:59;;;;;;;9.55;4.22;;;;;;;18.97;71.43;103618.53;5006951;28;20021;-38
2023/12/17 07:52:24;;;;;;;7.68;4.00;;;;;;;18.94;71.54;103617.06;5014698;28;20021;-38
2023/12/17 07:54:52;;;;;;;8.68;3.90;;;;;;;18.94;71.70;103624.50;5001377;28;20065;-37
2023/12/17 07:57:19;;;;;;;9.45;4.07;;;;;;;18.91;71.63;103636.75;5001394;28;20398;-37
2023/12/17 07:59:44;;;;;;;9.75;4.07;;;;;;;18.89;71.74;103636.94;5001426;28;20707;-38
2023/12/17 08:02:10;;;;;;;7.75;3.67;;;;;;;18.88;71.69;103637.16;5000546;28;20030;-37
2023/12/17 08:04:37;;;;;;;6.97;3.63;;;;;;;18.87;71.74;103640.94;5007070;28;20037;-37
2023/12/17 08:07:03;;;;;;;8.50;3.53;;;;;;;18.85;71.92;103643.09;5000475;28;20171;-37
2023/12/17 08:09:28;;;;;;;8.60;3.47;;;;;;;18.85;71.66;103648.59;5003673;28;20456;-38
2023/12/17 08:11:54;;;;;;;7.55;3.38;;;;;;;18.82;71.97;103643.50;4995383;28;20441;-37
2023/12/17 08:14:19;;;;;;;7.93;3.83;;;;;;;18.81;71.61;103639.94;5005183;28;20026;-37
2023/12/17 08:16:44;;;;;;;7.80;3.88;;;;;;;18.79;71.65;103641.19;4980415;28;20100;-38
2023/12/17 08:19:10;;;;;;;7.20;4.03;;;;;;;18.76;71.67;103648.81;4979038;28;20840;-38
2023/12/17 08:21:35;;;;;;;9.50;3.60;;;;;;;18.73;71.77;103642.91;4997412;28;20511;-38
2023/12/17 08:24:01;;;;;;;8.60;3.55;;;;;;;18.72;71.95;103653.06;5001385;28;20033;-38
2023/12/17 08:26:26;;;;;;;8.55;3.58;;;;;;;18.69;71.68;103652.63;5012100;28;20057;-38
2023/12/17 08:28:51;;;;;;;6.57;4.28;;;;;;;18.68;71.74;103649.03;5008084;28;20521;-37
2023/12/17 08:31:17;;;;;;;8.80;4.25;;;;;;;18.68;71.71;103648.19;5006369;28;20130;-37
2023/12/17 08:33:42;;;;;;;7.70;3.50;;;;;;;18.65;71.54;103649.47;5001944;28;20104;-39
2023/12/17 08:36:08;;;;;;;7.88;3.80;;;;;;;18.64;72.03;103647.78;5010886;28;20064;-37
2023/12/17 08:38:33;;;;;;;8.02;3.83;;;;;;;18.61;71.74;103645.44;4986039;28;20029;-38
2023/12/17 08:41:00;;;;;;;9.30;4.00;;;;;;;18.60;71.96;103643.75;5003638;28;20395;-37
2023/12/17 08:43:26;;;;;;;7.07;4.13;;;;;;;18.57;71.82;103644.19;5010219;28;20037;-38
2023/12/17 08:45:51;;;;;;;8.40;4.68;;;;;;;18.57;71.60;103645.00;5006456;28;20510;-38
2023/12/17 08:48:16;;;;;;;5.85;3.85;;;;;;;18.55;71.78;103652.66;5002823;28;20081;-38
2023/12/17 08:50:42;;;;;;;8.77;4.00;;;;;;;18.52;71.77;103650.31;5005331;28;20406;-38
2023/12/17 08:53:07;;;;;;;9.70;4.50;;;;;;;18.52;71.54;103652.22;4985712;28;20029;-38
2023/12/17 08:55:33;;;;;;;9.85;4.47;;;;;;;18.50;71.47;103652.41;4993961;28;20466;-36
2023/12/17 08:57:58;;;;;;;9.85;4.57;;;;;;;18.48;71.76;103651.81;4986527;28;20121;-38
2023/12/17 09:00:24;;;;;;;8.73;4.30;;;;;;;18.47;72.10;103655.59;5002423;28;20037;-37
2023/12/17 09:02:49;;;;;;;7.88;4.78;;;;;;;18.44;71.91;103658.75;5001497;28;20053;-37
2023/12/17 09:05:14;;;;;;;9.25;4.68;;;;;;;18.44;71.24;103656.88;5005949;28;20037;-37
2023/12/17 09:07:40;;;;;;;9.52;4.40;;;;;;;18.42;71.54;103653.47;5008577;28;20025;-37
2023/12/17 09:10:05;;;;;;;10.02;4.45;;;;;;;18.40;71.60;103652.00;5009988;28;20752;-38
2023/12/17 09:12:31;;;;;;;9.93;4.13;;;;;;;18.37;71.52;103653.28;4985816;28;20149;-38
2023/12/17 09:14:56;;;;;;;9.15;4.95;;;;;;;18.36;71.58;103653.50;5006316;28;20038;-38
2023/12/17 09:17:22;;;;;;;8.40;5.28;;;;;;;18.35;71.71;103654.56;4988305;28;20097;-38
2023/12/17 09:19:47;;;;;;;8.10;5.00;;;;;;;18.32;71.43;103664.06;5001696;28;20033;-38
2023/12/17 09:22:13;;;;;;;8.13;5.30;;;;;;;18.30;71.65;103660.66;5003594;28;20052;-38
2023/12/17 09:24:39;;;;;;;12.18;6.22;;;;;;;18.27;71.63;103667.44;5004905;28;20557;-37
2023/12/17 09:27:04;;;;;;;10.07;6.20;;;;;;;18.26;71.70;103662.16;5013880;28;20029;-37
2023/12/17 09:29:30;;;;;;;9.68;5.38;;;;;;;18.23;71.88;103670.81;5005136;28;20022;-37
2023/12/17 09:31:55;;;;;;;9.38;5.50;;;;;;;18.22;72.08;103661.72;5004467;28;20027;-37
2023/12/17 09:34:20;;;;;;;9.80;6.07;;;;;;;18.21;71.57;103672.91;5004422;28;20018;-38
2023/12/17 09:36:46;;;;;;;10.40;6.22;;;;;;;18.20;71.71;103663.00;5004574;28;20112;-39
2023/12/17 09:39:11;;;;;;;8.32;5.20;;;;;;;18.16;71.53;103670.81;4985973;28;20431;-38
2023/12/17 09:41:37;;;;;;;9.30;5.63;;;;;;;18.16;71.74;103664.44;5004375;28;20025;-38
2023/12/17 09:44:05;;;;;;;8.55;5.18;;;;;;;18.15;71.67;103662.75;5004696;28;20057;-37
2023/12/17 09:46:31;;;;;;;9.10;5.63;;;;;;;18.13;71.67;103668.47;5005657;28;20029;-37
2023/12/17 09:48:57;;;;;;;8.80;5.18;;;;;;;18.12;71.57;103667.63;4988884;28;20049;-37
2023/12/17 09:51:24;;;;;;;9.85;5.10;;;;;;;18.09;71.70;103658.97;5003755;28;20025;-37
2023/12/17 09:53:49;;;;;;;6.72;4.63;;;;;;;18.09;71.87;103664.47;4992004;28;20383;-37
2023/12/17 09:56:14;;;;;;;9.90;5.45;;;;;;;18.07;71.58;103666.56;4989116;28;20045;-37
2023/12/17 09:58:40;;;;;;;7.38;5.32;;;;;;;18.05;72.05;103655.81;5011352;28;20067;-37
2023/12/17 10:01:06;;;;;;;9.02;5.13;;;;;;;18.04;72.06;103662.34;4975658;28;20313;-38
2023/12/17 10:03:32;;;;;;;9.63;5.40;;;;;;;18.05;72.25;103655.81;5010685;28;20037;-38
2023/12/17 10:05:57;;;;;;;9.52;5.70;;;;;;;18.06;72.28;103657.50;4999004;28;20495;-38
2023/12/17 10:08:24;;;;;;;8.30;6.10;;;;;;;18.08;71.99;103649.88;5006170;28;20104;-38
2023/12/17 10:10:49;;;;;;;9.20;6.80;;;;;;;18.09;71.93;103642.50;5006207;28;20431;-37
2023/12/17 10:13:22;;;;;;;11.45;6.32;;;;;;;18.09;71.99;103643.34;5004235;28;20056;-37
2023/12/17 10:15:48;;;;;;;11.48;6.50;;;;;;;18.11;71.88;103645.88;5001929;28;20036;-37
2023/12/17 10:18:16;;;;;;;10.50;6.43;;;;;;;18.12;71.83;103629.22;4985273;28;20029;-37
2023/12/17 10:20:41;;;;;;;8.27;5.70;;;;;;;18.12;71.43;103629.22;5004764;28;20037;-37
2023/12/17 10:23:06;;;;;;;9.18;6.25;;;;;;;18.14;70.94;103633.66;5004920;28;20034;-38
2023/12/17 10:25:32;;;;;;;10.73;6.05;;;;;;;18.14;70.85;103629.00;5011097;28;20032;-37
2023/12/17 10:28:01;;;;;;;7.65;5.55;;;;;;;18.12;70.98;103631.94;5005414;28;20495;-38
2023/12/17 10:30:32;;;;;;;10.95;6.53;;;;;;;18.12;71.06;103640.19;4996350;28;20040;-37
2023/12/17 10:33:00;;;;;;;8.55;5.65;;;;;;;18.13;71.07;103630.03;5000265;28;20036;-37
2023/12/17 10:35:25;;;;;;;10.27;5.97;;;;;;;18.12;71.04;103625.59;5006602;28;20025;-37
2023/12/17 10:37:57;;;;;;;9.68;5.95;;;;;;;18.11;71.01;103613.78;5005162;28;20041;-38
2023/12/17 10:40:24;;;;;;;9.38;5.60;;;;;;;18.10;70.99;103603.03;5006521;28;20405;-37
2023/12/17 10:42:50;;;;;;;11.77;6.45;;;;;;;18.12;71.12;103606.38;4984661;28;20021;-37
2023/12/17 10:45:21;;;;;;;10.10;5.32;;;;;;;18.16;70.98;103596.69;4992241;28;20018;-37
2023/12/17 10:47:51;;;;;;;9.15;5.10;;;;;;;18.19;71.29;103599.00;5002512;28;20023;-37
2023/12/17 10:50:18;;;;;;;11.57;4.97;;;;;;;18.22;71.23;103594.97;5007600;28;20088;-38
2023/12/17 10:52:45;;;;;;;10.68;5.20;;;;;;;18.26;71.57;103585.28;5006656;28;20137;-38
2023/12/17 10:55:11;;;;;;;12.63;5.28;;;;;;;18.32;72.07;103597.31;5006281;28;20465;-38
2023/12/17 10:57:38;;;;;;;23.20;7.30;;;;;;;18.36;74.52;103591.19;5002935;28;20467;-38
2023/12/17 11:00:05;;;;;;;28.50;7.28;;;;;;;18.42;78.04;103597.72;4998006;28;20025;-38
2023/12/17 11:02:31;;;;;;;22.00;7.20;;;;;;;18.48;81.00;103596.00;4992088;28;20028;-38
2023/12/17 11:04:58;;;;;;;24.27;7.47;;;;;;;18.52;82.21;103595.38;4983336;28;20334;-38
2023/12/17 11:07:23;;;;;;;18.10;7.75;;;;;;;18.56;81.91;103584.81;5016849;28;20429;-39
2023/12/17 11:09:48;;;;;;;14.30;6.88;;;;;;;18.59;82.76;103574.25;5003805;28;20045;-40
2023/12/17 11:12:16;;;;;;;14.27;6.53;;;;;;;18.63;82.79;103571.91;4991468;28;20036;-36
2023/12/17 11:14:44;;;;;;;13.38;6.45;;;;;;;18.65;82.63;103564.31;5009322;28;20040;-38
2023/12/17 11:17:11;;;;;;;17.13;6.85;;;;;;;18.70;81.90;103558.16;5014451;28;20056;-37